Time;durP1;ratioP1;P1;durP2;ratioP2;P2;SDS_P1;SDS_P2;PMS_P1;PMS_P2;Temp;Humidity;BMP_temperature;BMP_pressure;BME280_temperature;BME280_humidity;BME280_pressure;Samples;Min_cycle;Max_cycle;Signal;HPM_P1;HPM_P2
2024/01/14 00:02:53;;;;;;;;;;;;;;;6.32;57.52;97799.05;50571;1275;2016296;-62
2024/01/14 00:05:56;;;;;;;29.90;10.70;;;;;;;6.40;57.02;97792.99;49935;1275;2016049;-61
2024/01/14 00:08:59;;;;;;;29.90;11.80;;;;;;;6.37;57.05;97796.83;51312;1274;2016129;-62
2024/01/14 00:12:03;;;;;;;30.90;12.70;;;;;;;6.34;57.06;97782.78;50709;1275;2018611;-62
2024/01/14 00:15:06;;;;;;;28.30;10.80;;;;;;;6.54;56.21;97772.38;50705;1275;2015793;-62
2024/01/14 00:18:09;;;;;;;28.70;10.40;;;;;;;6.54;55.90;97764.40;49810;1275;2016234;-61
2024/01/14 00:21:13;;;;;;;28.80;10.40;;;;;;;6.50;56.31;97779.73;51440;1275;2016469;-62
2024/01/14 00:24:17;;;;;;;24.80;9.40;;;;;;;6.63;55.80;97776.70;50734;1275;2016105;-62
2024/01/14 00:27:19;;;;;;;29.30;11.00;;;;;;;6.67;55.35;97762.73;49795;1275;2016053;-62
2024/01/14 00:30:22;;;;;;;29.40;11.10;;;;;;;6.65;55.88;97766.48;49933;1275;2016000;-62
2024/01/14 00:33:25;;;;;;;;;;;;;;;6.79;55.31;97768.59;51338;1275;2016416;-62
2024/01/14 00:36:28;;;;;;;31.40;11.00;;;;;;;6.86;55.12;97762.24;50591;1275;2015882;-62
2024/01/14 00:39:30;;;;;;;32.60;12.00;;;;;;;6.86;55.10;97752.17;59687;1275;2016236;-62
2024/01/14 00:42:34;;;;;;;;;;;;;;;6.82;55.18;97749.63;68016;1275;1016081;-62
2024/01/14 00:45:36;;;;;;;28.50;11.40;;;;;;;6.78;54.97;97741.70;67998;1275;1019578;-61
2024/01/14 00:48:39;;;;;;;;;;;;;;;6.81;54.97;97745.89;67973;1275;1016277;-61
2024/01/14 00:51:42;;;;;;;32.80;12.60;;;;;;;6.77;54.82;97742.11;67926;1275;1016424;-61
2024/01/14 00:54:44;;;;;;;;;;;;;;;6.83;54.53;97735.33;67968;1275;1016194;-61
2024/01/14 00:57:47;;;;;;;30.00;10.40;;;;;;;6.70;54.70;97727.45;67988;1275;1016479;-62
2024/01/14 01:00:50;;;;;;;;;;;;;;;6.71;54.36;97720.92;67992;1275;1016224;-61
2024/01/14 01:03:52;;;;;;;32.80;11.10;;;;;;;6.80;53.98;97717.77;67977;1275;1016379;-61
2024/01/14 01:06:55;;;;;;;32.70;12.20;;;;;;;6.77;54.00;97712.05;67978;1275;1016309;-61
2024/01/14 01:09:57;;;;;;;31.30;10.90;;;;;;;6.90;53.58;97708.30;67983;1275;1016431;-61
2024/01/14 01:13:00;;;;;;;30.40;11.50;;;;;;;6.84;53.92;97704.17;67943;1275;1016590;-61
2024/01/14 01:16:04;;;;;;;31.50;12.30;;;;;;;6.88;53.78;97694.85;67971;1275;1018021;-61
2024/01/14 01:19:07;;;;;;;31.20;12.10;;;;;;;6.93;53.80;97691.25;67969;1275;1016472;-60
2024/01/14 01:22:09;;;;;;;29.90;11.20;;;;;;;6.82;54.32;97694.05;67965;1275;1016639;-61
2024/01/14 01:25:12;;;;;;;30.30;11.80;;;;;;;6.78;54.96;97684.87;67886;1275;1016428;-59
2024/01/14 01:28:14;;;;;;;31.70;12.50;;;;;;;6.70;55.39;97679.63;67936;1275;1016213;-61
2024/01/14 01:31:17;;;;;;;30.10;11.10;;;;;;;6.76;55.60;97676.67;67962;1275;1016204;-62
2024/01/14 01:34:20;;;;;;;30.80;12.60;;;;;;;6.71;55.53;97659.26;67941;1275;1016359;-61
2024/01/14 01:37:23;;;;;;;31.10;12.80;;;;;;;6.71;55.53;97663.11;67967;1275;1016322;-61
2024/01/14 01:40:25;;;;;;;;;;;;;;;6.69;55.40;97658.02;68024;1275;1016450;-60
2024/01/14 01:43:28;;;;;;;32.30;12.80;;;;;;;6.73;55.35;97649.77;67950;1275;1016441;-60
2024/01/14 01:46:31;;;;;;;;;;;;;;;6.74;55.19;97643.40;67974;1275;1016479;-61
2024/01/14 01:49:33;;;;;;;35.50;13.50;;;;;;;6.62;55.47;97649.58;67970;1275;1017033;-61
2024/01/14 01:52:36;;;;;;;;;;;;;;;6.67;55.41;97644.92;67926;1275;1018182;-60
2024/01/14 01:55:39;;;;;;;32.10;11.80;;;;;;;6.63;56.81;97642.77;67975;1275;1016508;-61
2024/01/14 01:58:41;;;;;;;;;;;;;;;6.64;59.56;97639.05;68046;1275;1016433;-61
2024/01/14 02:01:44;;;;;;;37.10;13.80;;;;;;;6.63;57.40;97645.71;67943;1275;1016191;-61
2024/01/14 02:04:46;;;;;;;33.90;12.90;;;;;;;6.51;56.90;97644.54;67940;1275;1016425;-60
2024/01/14 02:07:49;;;;;;;;;;;;;;;6.39;58.36;97639.92;68001;1275;1016156;-61
2024/01/14 02:10:52;;;;;;;36.10;13.00;;;;;;;6.38;59.35;97632.71;68004;1275;1016879;-61
2024/01/14 02:13:54;;;;;;;33.60;12.50;;;;;;;6.37;58.26;97627.88;67955;1275;1016431;-61
2024/01/14 02:16:57;;;;;;;;;;;;;;;6.42;57.67;97616.66;68023;1275;1016384;-61
2024/01/14 02:20:00;;;;;;;35.70;14.20;;;;;;;6.44;57.17;97610.98;68029;1275;1015904;-60
2024/01/14 02:23:02;;;;;;;;;;;;;;;6.50;56.89;97611.94;67956;1275;1016450;-61
2024/01/14 02:26:05;;;;;;;31.60;12.20;;;;;;;6.46;57.23;97617.42;68002;1275;1015923;-61
2024/01/14 02:29:08;;;;;;;34.40;11.10;;;;;;;6.50;57.12;97608.13;67998;1275;1016432;-61
2024/01/14 02:32:11;;;;;;;28.00;10.90;;;;;;;6.50;56.89;97601.88;67941;1275;1016266;-59
2024/01/14 02:35:13;;;;;;;28.00;11.20;;;;;;;6.50;56.71;97598.41;68005;1275;1016014;-61
2024/01/14 02:38:16;;;;;;;32.90;12.40;;;;;;;6.52;56.33;97599.88;67964;1275;1015606;-61
2024/01/14 02:41:18;;;;;;;33.80;13.20;;;;;;;6.55;56.05;97590.95;67928;1275;1016422;-61
2024/01/14 02:44:22;;;;;;;32.10;12.30;;;;;;;6.59;55.87;97587.58;67998;1275;1016330;-61
2024/01/14 02:47:24;;;;;;;30.60;11.30;;;;;;;6.71;55.37;97573.98;67926;1275;1018130;-61
2024/01/14 02:50:27;;;;;;;;;;;;;;;6.74;55.28;97570.84;67932;1275;1016470;-61
2024/01/14 02:53:29;;;;;;;28.80;11.00;;;;;;;6.73;55.17;97566.23;67985;1275;1016371;-61
2024/01/14 02:56:32;;;;;;;;;;;;;;;6.72;55.28;97569.89;67993;1275;1016397;-60
2024/01/14 02:59:35;;;;;;;33.00;12.90;;;;;;;6.76;55.06;97572.81;67949;1275;1016291;-61
2024/01/14 03:02:37;;;;;;;;;;;;;;;6.70;55.37;97564.80;68000;1275;1016432;-60
2024/01/14 03:05:40;;;;;;;30.80;11.50;;;;;;;6.59;55.54;97558.23;68002;1275;1016419;-61
2024/01/14 03:08:43;;;;;;;;;;;;;;;6.71;55.53;97559.21;67961;1275;1016776;-61
2024/01/14 03:11:45;;;;;;;31.70;11.60;;;;;;;6.79;55.16;97549.27;67956;1275;1016437;-61
2024/01/14 03:14:48;;;;;;;;;;;;;;;6.90;54.74;97549.29;68015;1275;1016411;-62
2024/01/14 03:17:51;;;;;;;32.40;12.50;;;;;;;6.94;54.63;97540.88;67948;1275;1016092;-61
2024/01/14 03:20:53;;;;;;;;;;;;;;;6.81;55.85;97536.65;68003;1275;1016410;-61
2024/01/14 03:23:56;;;;;;;29.40;10.60;;;;;;;6.72;56.60;97531.73;68000;1275;1016502;-61
2024/01/14 03:26:59;;;;;;;;;;;;;;;6.64;56.51;97531.68;67998;1275;1016899;-61
2024/01/14 03:30:02;;;;;;;33.50;13.20;;;;;;;6.77;55.90;97521.31;67919;1275;1016448;-61
2024/01/14 03:33:05;;;;;;;32.60;12.60;;;;;;;6.96;54.98;97516.22;67990;1275;1016230;-61
2024/01/14 03:36:08;;;;;;;29.80;11.50;;;;;;;6.94;54.63;97518.05;67926;1275;1018662;-60
2024/01/14 03:39:11;;;;;;;31.90;12.00;;;;;;;6.83;55.14;97508.41;67992;1275;1015984;-61
2024/01/14 03:42:13;;;;;;;31.90;12.10;;;;;;;6.78;55.75;97515.15;67949;1275;1016347;-60
2024/01/14 03:45:16;;;;;;;34.40;14.20;;;;;;;6.92;55.04;97513.01;68016;1275;1016451;-61
2024/01/14 03:48:18;;;;;;;35.40;14.80;;;;;;;6.92;55.31;97505.00;67985;1275;1016213;-61
2024/01/14 03:51:21;;;;;;;34.90;14.50;;;;;;;6.81;56.88;97505.21;67941;1275;1018834;-61
2024/01/14 03:54:24;;;;;;;;;;;;;;;6.79;58.69;97507.94;67957;1275;1015993;-60
2024/01/14 03:57:26;;;;;;;35.90;14.40;;;;;;;6.68;62.19;97502.42;68025;1275;1016377;-61
2024/01/14 04:00:29;;;;;;;;;;;;;;;6.72;61.63;97504.61;68000;1275;1016406;-60
2024/01/14 04:03:32;;;;;;;34.10;13.90;;;;;;;6.77;60.03;97494.16;67940;1275;1018981;-61
2024/01/14 04:06:35;;;;;;;34.10;13.90;;;;;;;6.78;59.96;97493.58;67996;1275;1016484;-61
2024/01/14 04:09:37;;;;;;;34.10;14.70;;;;;;;6.84;59.03;97491.43;67959;1275;1016311;-60
2024/01/14 04:12:40;;;;;;;;;;;;;;;6.93;59.10;97483.40;67987;1275;1016752;-60
2024/01/14 04:15:43;;;;;;;33.80;14.10;;;;;;;7.02;59.05;97482.75;67998;1275;1016483;-60
2024/01/14 04:18:45;;;;;;;;;;;;;;;6.92;58.59;97475.61;68008;1275;1017218;-59
2024/01/14 04:21:48;;;;;;;32.20;12.40;;;;;;;6.98;57.61;97470.22;67989;1275;1017512;-61
2024/01/14 04:24:51;;;;;;;32.20;12.80;;;;;;;6.93;58.85;97470.73;68009;1275;1016055;-61
2024/01/14 04:27:54;;;;;;;34.10;13.40;;;;;;;6.88;60.05;97467.41;67945;1275;1016396;-61
2024/01/14 04:30:56;;;;;;;;;;;;;;;6.86;58.77;97466.47;68010;1275;1016126;-61
2024/01/14 04:34:03;;;;;;;33.80;12.80;;;;;;;6.80;58.51;97474.19;67979;1275;1016503;-61
2024/01/14 04:37:05;;;;;;;33.80;13.90;;;;;;;6.88;57.69;97461.33;67998;1275;1016120;-61
2024/01/14 04:40:08;;;;;;;;;;;;;;;6.76;58.07;97487.60;67942;1275;1016092;-61
2024/01/14 04:43:11;;;;;;;28.90;11.80;;;;;;;6.80;57.63;97467.40;67967;1275;1016149;-61
2024/01/14 04:46:14;;;;;;;31.70;12.80;;;;;;;6.86;57.53;97464.40;67930;1275;1015936;-61
2024/01/14 04:49:16;;;;;;;;;;;;;;;7.08;56.70;97465.70;68004;1275;1016474;-61
2024/01/14 04:52:19;;;;;;;31.00;11.40;;;;;;;7.06;56.77;97458.15;67997;1275;1016586;-61
2024/01/14 04:55:22;;;;;;;;;;;;;;;7.13;56.93;97453.34;67913;1275;1016425;-61
2024/01/14 04:58:24;;;;;;;30.50;11.00;;;;;;;7.02;57.27;97458.45;67997;1275;1018770;-61
2024/01/14 05:01:27;;;;;;;;;;;;;;;7.14;56.78;97443.05;67962;1275;1016067;-61
2024/01/14 05:04:30;;;;;;;27.20;10.50;;;;;;;7.00;57.48;97451.31;67962;1275;1016450;-61
2024/01/14 05:07:33;;;;;;;;;;;;;;;7.03;57.89;97446.19;67950;1275;1016288;-61
2024/01/14 05:10:35;;;;;;;25.10;9.10;;;;;;;6.94;58.08;97454.99;67980;1275;1016485;-61
2024/01/14 05:13:38;;;;;;;25.70;10.20;;;;;;;7.00;57.73;97443.67;68012;1275;1016428;-61
2024/01/14 05:16:40;;;;;;;;;;;;;;;7.06;57.33;97429.35;67980;1275;1017077;-61
2024/01/14 05:19:43;;;;;;;24.40;9.10;;;;;;;7.07;57.04;97443.52;68037;1275;1018448;-61
2024/01/14 05:22:46;;;;;;;;;;;;;;;7.15;56.56;97447.64;67989;1275;1015975;-60
2024/01/14 05:25:48;;;;;;;28.90;10.30;;;;;;;7.22;56.04;97450.79;67965;1275;1016468;-60
2024/01/14 05:28:51;;;;;;;;;;;;;;;7.25;55.93;97448.73;68020;1275;1016759;-61
2024/01/14 05:31:54;;;;;;;24.10;8.80;;;;;;;7.37;55.60;97456.89;67956;1275;1016754;-61
2024/01/14 05:34:56;;;;;;;25.10;9.60;;;;;;;7.35;56.49;97459.66;67961;1275;1019337;-61
2024/01/14 05:37:59;;;;;;;;;;;;;;;7.35;56.44;97452.56;67933;1275;1016464;-61
2024/01/14 05:41:02;;;;;;;22.90;7.80;;;;;;;7.40;55.98;97441.73;68024;1275;1016433;-61
2024/01/14 05:44:04;;;;;;;24.60;8.00;;;;;;;7.40;55.78;97435.69;67999;1275;1016092;-61
2024/01/14 05:47:08;;;;;;;23.40;7.60;;;;;;;7.34;55.66;97437.65;67966;1275;1016036;-61
2024/01/14 05:50:12;;;;;;;25.70;8.60;;;;;;;7.34;55.45;97426.87;67954;1275;1016272;-60
2024/01/14 05:53:15;;;;;;;28.10;9.80;;;;;;;7.36;55.62;97430.36;67914;1275;1016407;-61
2024/01/14 05:56:18;;;;;;;;;;;;;;;7.45;55.13;97431.83;68039;1275;1016407;-61
2024/01/14 05:59:20;;;;;;;23.90;8.10;;;;;;;7.44;55.05;97429.15;68027;1275;1016407;-61
2024/01/14 06:02:23;;;;;;;;;;;;;;;7.53;54.97;97439.64;67973;1275;1016223;-61
2024/01/14 06:05:26;;;;;;;24.60;9.00;;;;;;;7.48;54.99;97449.55;67991;1275;1018614;-61
2024/01/14 06:08:29;;;;;;;;;;;;;;;7.47;55.12;97441.44;67990;1275;1016493;-61
2024/01/14 06:11:32;;;;;;;28.20;9.70;;;;;;;7.50;55.04;97427.84;68028;1275;1016517;-60
2024/01/14 06:14:34;;;;;;;;;;;;;;;7.59;54.83;97435.75;68032;1275;1016135;-63
2024/01/14 06:17:37;;;;;;;27.30;9.60;;;;;;;7.54;54.89;97436.77;67972;1275;1016511;-61
2024/01/14 06:20:40;;;;;;;27.10;9.60;;;;;;;7.69;54.80;97439.42;67998;1275;1016481;-60
2024/01/14 06:23:42;;;;;;;;;;;;;;;7.70;54.87;97436.17;67891;1275;1016348;-61
2024/01/14 06:26:45;;;;;;;25.20;9.60;;;;;;;7.60;55.16;97432.83;67991;1275;1016403;-61
2024/01/14 06:29:48;;;;;;;24.30;8.60;;;;;;;7.59;55.47;97439.92;67952;1275;1016255;-61
2024/01/14 06:32:50;;;;;;;24.70;9.00;;;;;;;7.57;55.35;97433.95;68013;1275;1016478;-61
2024/01/14 06:35:53;;;;;;;24.60;8.70;;;;;;;7.52;55.66;97425.59;68005;1275;1016390;-61
2024/01/14 06:38:56;;;;;;;26.10;9.60;;;;;;;7.60;55.38;97426.95;67990;1275;1016400;-61
2024/01/14 06:41:58;;;;;;;;;;;;;;;7.59;55.44;97432.42;68016;1275;1017594;-61
2024/01/14 06:45:01;;;;;;;24.50;8.80;;;;;;;7.60;55.54;97434.96;67972;1275;1019002;-61
2024/01/14 06:48:04;;;;;;;26.50;9.00;;;;;;;7.56;55.59;97437.69;67983;1275;1016243;-60
2024/01/14 06:51:06;;;;;;;23.90;8.80;;;;;;;7.61;55.40;97435.29;68001;1275;1016442;-61
2024/01/14 06:54:09;;;;;;;28.70;9.50;;;;;;;7.62;55.31;97432.39;68008;1275;1016576;-61
2024/01/14 06:57:12;;;;;;;;;;;;;;;7.75;54.99;97432.16;67947;1275;1016398;-61
2024/01/14 07:00:14;;;;;;;27.80;10.20;;;;;;;7.76;54.95;97423.93;68020;1275;1016561;-61
2024/01/14 07:03:17;;;;;;;23.90;8.20;;;;;;;7.79;54.82;97437.99;68034;1275;1016272;-61
2024/01/14 07:06:20;;;;;;;;;;;;;;;7.87;54.58;97428.35;67977;1275;1017792;-59
2024/01/14 07:09:22;;;;;;;27.20;8.90;;;;;;;7.93;54.62;97433.47;68014;1275;1016374;-60
2024/01/14 07:12:25;;;;;;;25.40;8.20;;;;;;;8.02;54.16;97440.66;68050;1275;1016203;-60
2024/01/14 07:15:27;;;;;;;26.50;9.50;;;;;;;8.11;53.94;97440.68;67977;1275;1016366;-61
2024/01/14 07:18:30;;;;;;;23.70;7.70;;;;;;;8.16;53.97;97438.96;67958;1275;1016573;-61
2024/01/14 07:21:33;;;;;;;;;;;;;;;8.10;54.10;97436.83;68062;1275;1016464;-61
2024/01/14 07:24:36;;;;;;;;;;;;;;;8.04;56.25;97444.36;67973;1275;1016425;-61
2024/01/14 07:27:38;;;;;;;29.60;11.10;;;;;;;8.13;55.49;97454.48;67985;1275;1016399;-60
2024/01/14 07:30:41;;;;;;;;;;;;;;;8.24;54.89;97447.98;68047;1275;1016367;-60
2024/01/14 07:33:43;;;;;;;26.90;10.10;;;;;;;8.23;54.52;97449.41;67974;1275;1016465;-60
2024/01/14 07:36:46;;;;;;;27.00;9.80;;;;;;;8.17;54.89;97457.91;67952;1275;1016538;-61
2024/01/14 07:39:49;;;;;;;;;;;;;;;8.18;54.80;97456.42;68000;1275;1016447;-61
2024/01/14 07:42:53;;;;;;;26.20;9.00;;;;;;;8.23;54.55;97440.34;67978;1275;1015996;-61
2024/01/14 07:45:56;;;;;;;25.80;9.60;;;;;;;8.29;54.39;97451.63;67962;1275;1016301;-60
2024/01/14 07:48:59;;;;;;;25.80;9.80;;;;;;;8.36;54.24;97449.20;67955;1275;1016799;-61
2024/01/14 07:52:01;;;;;;;26.20;9.40;;;;;;;8.41;53.88;97454.36;67974;1275;1016039;-61
2024/01/14 07:55:04;;;;;;;;;;;;;;;8.44;53.40;97458.02;67999;1275;1016419;-61
2024/01/14 07:58:11;;;;;;;29.00;10.60;;;;;;;8.49;53.43;97456.77;68034;1275;1016294;-61
2024/01/14 08:01:14;;;;;;;23.10;7.80;;;;;;;8.62;53.20;97455.13;67946;1275;1016290;-61
2024/01/14 08:04:16;;;;;;;23.30;8.10;;;;;;;8.48;53.05;97445.35;67954;1275;1016340;-61
2024/01/14 08:07:19;;;;;;;26.60;9.10;;;;;;;8.39;53.43;97452.79;68032;1275;1016500;-61
2024/01/14 08:10:22;;;;;;;24.30;8.80;;;;;;;8.52;53.46;97451.98;67969;1275;1016492;-61
2024/01/14 08:13:25;;;;;;;;;;;;;;;8.44;53.36;97458.50;67985;1275;1016471;-60
2024/01/14 08:16:27;;;;;;;29.70;10.90;;;;;;;8.54;53.47;97457.80;68025;1275;1016447;-61
2024/01/14 08:19:30;;;;;;;;;;;;;;;8.55;54.50;97453.03;67952;1275;1016237;-61
2024/01/14 08:22:33;;;;;;;28.80;10.00;;;;;;;8.53;54.46;97447.96;67980;1275;1016441;-61
2024/01/14 08:25:35;;;;;;;28.80;10.10;;;;;;;8.52;54.37;97445.05;68021;1275;1016398;-61
2024/01/14 08:28:38;;;;;;;;;;;;;;;8.55;54.24;97448.36;67972;1275;1016785;-61
2024/01/14 08:31:41;;;;;;;26.20;9.00;;;;;;;8.55;54.42;97447.11;67985;1275;1018399;-60
2024/01/14 08:34:44;;;;;;;27.20;9.80;;;;;;;8.68;54.18;97448.79;67994;1275;1016196;-61
2024/01/14 08:37:47;;;;;;;;;;;;;;;8.81;53.62;97441.48;67970;1275;1018749;-61
2024/01/14 08:40:49;;;;;;;25.50;8.60;;;;;;;8.71;53.59;97456.95;68006;1275;1016215;-60
2024/01/14 08:43:52;;;;;;;;;;;;;;;8.76;53.10;97451.45;67996;1275;1016174;-61
2024/01/14 08:46:55;;;;;;;24.20;8.30;;;;;;;8.78;53.01;97441.22;67968;1275;1017975;-61
2024/01/14 08:49:57;;;;;;;;;;;;;;;8.66;53.37;97445.63;68018;1275;1016008;-61
2024/01/14 08:53:00;;;;;;;30.50;9.90;;;;;;;8.74;53.35;97450.77;67987;1275;1016588;-61
2024/01/14 08:56:03;;;;;;;;;;;;;;;8.64;53.50;97456.38;67968;1275;1016385;-61
2024/01/14 08:59:06;;;;;;;;;;;;;;;8.69;53.86;97454.96;68033;1275;1016353;-61
2024/01/14 09:02:08;;;;;;;25.90;9.20;;;;;;;8.61;53.65;97459.20;67978;1275;1016483;-61
2024/01/14 09:05:11;;;;;;;25.20;8.70;;;;;;;8.49;54.27;97457.50;67932;1275;1016485;-61
2024/01/14 09:08:14;;;;;;;;;;;;;;;8.62;54.13;97449.05;68002;1275;1016481;-62
2024/01/14 09:11:17;;;;;;;27.10;9.40;;;;;;;8.66;53.97;97462.88;68002;1275;1016249;-61
2024/01/14 09:14:20;;;;;;;24.90;8.90;;;;;;;8.58;54.16;97466.07;68026;1275;1016374;-57
2024/01/14 09:17:22;;;;;;;26.90;8.10;;;;;;;8.58;54.46;97469.84;68015;1275;1016272;-61
2024/01/14 09:20:25;;;;;;;;;;;;;;;8.57;54.49;97470.11;67982;1275;1018607;-61
2024/01/14 09:23:29;;;;;;;21.70;6.50;;;;;;;8.69;54.10;97469.27;67999;1275;1016634;-61
2024/01/14 09:26:32;;;;;;;24.50;6.10;;;;;;;8.85;53.92;97462.85;68012;1275;1016434;-61
2024/01/14 09:29:34;;;;;;;22.50;6.90;;;;;;;8.79;53.82;97467.14;68003;1275;1016465;-61
2024/01/14 09:32:37;;;;;;;21.10;6.60;;;;;;;8.80;53.62;97477.16;67943;1275;1016261;-61
2024/01/14 09:35:39;;;;;;;22.80;6.40;;;;;;;8.82;53.37;97474.18;67986;1275;1016341;-61
2024/01/14 09:38:42;;;;;;;;;;;;;;;8.85;53.55;97467.70;68026;1275;1016471;-61
2024/01/14 09:41:45;;;;;;;24.70;8.10;;;;;;;8.86;53.62;97463.76;67927;1275;1016608;-60
2024/01/14 09:44:48;;;;;;;;;;;;;;;8.87;53.37;97462.33;68004;1275;1016099;-62
2024/01/14 09:47:50;;;;;;;25.60;7.50;;;;;;;8.91;53.24;97455.20;68047;1275;1016485;-62
2024/01/14 09:50:53;;;;;;;20.70;6.80;;;;;;;8.99;53.89;97459.80;67983;1275;1018217;-61
2024/01/14 09:53:56;;;;;;;27.30;9.90;;;;;;;8.89;53.96;97459.73;67953;1275;1016458;-60
2024/01/14 09:56:58;;;;;;;;;;;;;;;8.90;54.08;97447.60;67990;1275;1017485;-61
2024/01/14 10:00:01;;;;;;;23.00;7.20;;;;;;;9.02;53.43;97455.42;67994;1275;1016202;-61
2024/01/14 10:03:04;;;;;;;;;;;;;;;8.85;53.74;97456.20;67983;1275;1017017;-60
2024/01/14 10:06:07;;;;;;;22.10;7.00;;;;;;;8.95;53.61;97448.79;67982;1275;1016466;-61
2024/01/14 10:09:10;;;;;;;22.50;6.40;;;;;;;9.14;52.94;97449.15;67958;1275;1016425;-61
2024/01/14 10:12:13;;;;;;;;;;;;;;;9.22;52.63;97447.80;68003;1275;1016400;-61
2024/01/14 10:15:15;;;;;;;;;;;;;;;9.18;52.56;97460.98;67948;1275;1016578;-60
2024/01/14 10:18:18;;;;;;;21.10;5.80;;;;;;;9.13;52.67;97446.23;67989;1275;1016468;-61
2024/01/14 10:21:21;;;;;;;21.80;6.30;;;;;;;9.03;52.68;97456.58;68002;1275;1016215;-60
2024/01/14 10:24:23;;;;;;;;;;;;;;;9.15;52.52;97452.00;67964;1275;1016708;-61
2024/01/14 10:27:26;;;;;;;24.00;7.20;;;;;;;9.07;52.51;97450.18;67980;1275;1016270;-61
2024/01/14 10:30:28;;;;;;;21.60;6.40;;;;;;;9.05;52.73;97444.54;68013;1275;1016448;-61
2024/01/14 10:33:31;;;;;;;;;;;;;;;9.15;52.26;97441.03;67997;1275;1016439;-61
2024/01/14 10:36:34;;;;;;;21.20;6.10;;;;;;;9.32;51.86;97442.67;67963;1275;1016435;-61
2024/01/14 10:39:37;;;;;;;;;;;;;;;9.28;51.31;97436.67;68000;1275;1018955;-61
2024/01/14 10:42:40;;;;;;;20.00;5.50;;;;;;;9.11;52.13;97439.75;67947;1275;1016106;-61
2024/01/14 10:45:42;;;;;;;19.60;4.90;;;;;;;9.06;52.79;97444.48;67908;1275;1016477;-61
2024/01/14 10:48:45;;;;;;;19.30;5.30;;;;;;;9.02;52.84;97442.33;68006;1275;1016515;-61
2024/01/14 10:51:48;;;;;;;;;;;;;;;8.99;52.75;97445.58;67971;1275;1016274;-61
2024/01/14 10:54:51;;;;;;;;;;;;;;;8.96;52.74;97453.95;67939;1275;1016481;-62
2024/01/14 10:57:54;;;;;;;21.20;5.40;;;;;;;8.99;52.70;97442.58;68007;1275;1015933;-61
2024/01/14 11:00:56;;;;;;;20.10;4.90;;;;;;;9.32;51.98;97432.54;67938;1275;1016401;-61
2024/01/14 11:03:59;;;;;;;14.80;3.90;;;;;;;9.48;51.13;97430.98;67973;1275;1016400;-62
2024/01/14 11:07:02;;;;;;;;;;;;;;;9.21;52.03;97434.95;67998;1275;1016391;-61
2024/01/14 11:10:05;;;;;;;;;;;;;;;9.25;52.46;97432.23;67959;1275;1016399;-61
2024/01/14 11:13:08;;;;;;;15.40;3.90;;;;;;;9.34;52.24;97418.77;67964;1275;1016275;-61
2024/01/14 11:16:11;;;;;;;19.40;5.20;;;;;;;9.36;51.98;97417.74;67955;1275;1015908;-62
2024/01/14 11:19:13;;;;;;;20.40;5.10;;;;;;;9.44;51.92;97416.27;67962;1275;1016345;-61
2024/01/14 11:22:16;;;;;;;19.00;5.00;;;;;;;9.48;51.47;97412.60;67945;1275;1018608;-61
2024/01/14 11:25:19;;;;;;;;;;;;;;;9.50;51.33;97412.52;67944;1275;1016522;-61
2024/01/14 11:28:21;;;;;;;21.40;5.60;;;;;;;9.30;52.12;97413.92;67969;1275;1015887;-62
2024/01/14 11:31:24;;;;;;;;;;;;;;;8.93;54.42;97430.30;67977;1275;1017103;-61
2024/01/14 11:34:27;;;;;;;20.30;4.60;;;;;;;8.84;54.79;97417.42;67958;1275;1016267;-62
2024/01/14 11:37:29;;;;;;;;;;;;;;;8.78;55.04;97414.76;67992;1275;1016120;-62
2024/01/14 11:40:32;;;;;;;18.10;4.80;;;;;;;8.71;55.78;97412.63;67974;1275;1015981;-61
2024/01/14 11:43:34;;;;;;;19.20;4.70;;;;;;;8.71;56.11;97411.63;67952;1275;1016483;-61
2024/01/14 11:46:37;;;;;;;18.80;5.10;;;;;;;8.65;55.83;97410.27;67992;1275;1016711;-61
2024/01/14 11:49:40;;;;;;;;;;;;;;;8.66;55.79;97411.07;68027;1275;1016366;-61
2024/01/14 11:52:42;;;;;;;20.10;5.30;;;;;;;8.75;55.49;97417.88;67951;1275;1016397;-61
2024/01/14 11:55:46;;;;;;;;;;;;;;;8.81;54.44;97415.33;67991;1275;1016540;-61
2024/01/14 11:58:48;;;;;;;19.80;5.00;;;;;;;9.01;53.65;97419.60;67868;1275;1016515;-61
2024/01/14 12:01:52;;;;;;;19.30;4.90;;;;;;;9.25;52.76;97410.21;67947;1275;1016175;-60
2024/01/14 12:04:55;;;;;;;17.80;4.80;;;;;;;9.28;51.72;97418.05;67905;1275;1016629;-61
2024/01/14 12:07:58;;;;;;;20.10;4.60;;;;;;;9.21;51.89;97422.05;67964;1275;1016665;-62
2024/01/14 12:11:00;;;;;;;12.70;3.50;;;;;;;9.30;51.82;97421.05;67947;1275;1016320;-61
2024/01/14 12:14:03;;;;;;;;;;;;;;;9.14;51.48;97427.17;67937;1275;1016421;-60
2024/01/14 12:17:06;;;;;;;12.60;2.90;;;;;;;9.08;51.52;97425.71;67981;1275;1018347;-61
2024/01/14 12:20:08;;;;;;;17.20;3.70;;;;;;;9.05;51.37;97428.05;68003;1275;1016167;-61
2024/01/14 12:23:11;;;;;;;;;;;;;;;9.07;51.27;97428.57;67960;1275;1016428;-61
2024/01/14 12:26:14;;;;;;;;;;;;;;;9.08;50.54;97437.55;68025;1275;1016363;-62
2024/01/14 12:29:17;;;;;;;14.20;3.30;;;;;;;9.01;50.56;97434.80;67974;1275;1016451;-61
2024/01/14 12:32:19;;;;;;;;;;;;;;;9.10;50.45;97427.45;67966;1275;1016387;-61
2024/01/14 12:35:22;;;;;;;17.10;4.20;;;;;;;9.20;50.38;97425.13;67968;1275;1016465;-63
2024/01/14 12:38:25;;;;;;;;;;;;;;;9.24;49.65;97434.75;67974;1275;1016374;-61
2024/01/14 12:41:27;;;;;;;22.10;5.40;;;;;;;9.24;49.60;97430.59;67940;1275;1016426;-61
2024/01/14 12:44:30;;;;;;;20.70;5.20;;;;;;;9.24;49.90;97425.31;67992;1275;1016374;-61
2024/01/14 12:47:32;;;;;;;20.30;5.70;;;;;;;9.28;49.95;97422.77;68011;1275;1018465;-61
2024/01/14 12:50:35;;;;;;;23.10;6.30;;;;;;;9.29;49.61;97422.17;67969;1275;1016556;-62
2024/01/14 12:53:38;;;;;;;20.00;5.40;;;;;;;9.39;49.59;97417.36;67932;1275;1017225;-61
2024/01/14 12:56:40;;;;;;;;;;;;;;;9.33;49.49;97415.05;67994;1275;1016435;-61
2024/01/14 12:59:43;;;;;;;22.80;5.00;;;;;;;9.15;49.63;97409.30;67966;1275;1016367;-60
2024/01/14 13:02:46;;;;;;;18.20;4.00;;;;;;;9.16;49.33;97426.79;67960;1275;1016412;-61
2024/01/14 13:05:48;;;;;;;18.60;4.60;;;;;;;9.15;49.25;97433.89;67959;1275;1016306;-61
2024/01/14 13:08:51;;;;;;;17.10;3.60;;;;;;;9.14;49.54;97429.93;67976;1275;1016532;-61
2024/01/14 13:11:54;;;;;;;15.00;4.40;;;;;;;9.12;49.48;97428.69;67945;1275;1016423;-60
2024/01/14 13:14:57;;;;;;;;;;;;;;;9.17;49.26;97424.30;68029;1275;1016112;-61
2024/01/14 13:18:00;;;;;;;19.70;4.60;;;;;;;9.19;48.99;97423.11;67994;1275;1016498;-61
2024/01/14 13:21:02;;;;;;;18.10;4.30;;;;;;;9.09;49.10;97420.17;67903;1275;1016514;-61
2024/01/14 13:24:06;;;;;;;17.30;4.40;;;;;;;9.06;49.27;97417.82;68009;1275;1016314;-60
2024/01/14 13:27:09;;;;;;;22.50;6.50;;;;;;;8.91;51.23;97423.16;67925;1275;1016248;-61
2024/01/14 13:30:12;;;;;;;20.90;5.90;;;;;;;8.78;53.42;97421.84;67974;1275;1016466;-60
2024/01/14 13:33:14;;;;;;;20.00;5.70;;;;;;;8.77;53.98;97420.05;67976;1275;1015835;-60
2024/01/14 13:36:17;;;;;;;;;;;;;;;8.80;53.58;97423.45;68006;1275;1018777;-60
2024/01/14 13:39:20;;;;;;;21.40;6.00;;;;;;;8.78;54.27;97425.33;67957;1275;1016128;-61
2024/01/14 13:42:25;;;;;;;;;;;;;;;8.69;54.28;97427.64;67948;1275;1016406;-61
2024/01/14 13:45:30;;;;;;;24.80;6.70;;;;;;;8.70;54.31;97421.23;67964;1275;1015887;-61
2024/01/14 13:48:34;;;;;;;28.50;8.10;;;;;;;8.74;54.29;97420.04;67982;1275;1016371;-62
2024/01/14 13:51:36;;;;;;;27.10;8.80;;;;;;;8.82;54.32;97423.80;67956;1275;1016463;-62
2024/01/14 13:54:39;;;;;;;;;;;;;;;8.80;55.54;97426.61;67963;1275;1016353;-61
2024/01/14 13:57:42;;;;;;;;;;;;;;;8.58;56.38;97422.67;67901;1275;1016306;-61
2024/01/14 14:00:44;;;;;;;24.20;7.50;;;;;;;8.55;56.14;97426.35;67940;1275;1017021;-61
2024/01/14 14:03:47;;;;;;;;;;;;;;;8.61;55.91;97424.20;68006;1275;1015545;-62
2024/01/14 14:06:50;;;;;;;26.60;7.30;;;;;;;8.61;55.48;97416.84;68004;1275;1016237;-61
2024/01/14 14:09:52;;;;;;;;;;;;;;;8.51;55.42;97421.30;67949;1275;1016314;-61
2024/01/14 14:12:55;;;;;;;28.30;8.30;;;;;;;8.61;55.00;97411.97;67988;1275;1016480;-61
2024/01/14 14:16:00;;;;;;;27.40;8.30;;;;;;;8.61;54.53;97420.52;67987;1275;1016150;-62
2024/01/14 14:19:03;;;;;;;25.60;7.80;;;;;;;8.56;55.22;97416.56;67948;1275;1018274;-62
2024/01/14 14:22:06;;;;;;;25.70;7.30;;;;;;;8.58;54.55;97409.61;67967;1275;1016464;-61
2024/01/14 14:25:09;;;;;;;29.30;7.90;;;;;;;8.52;54.30;97421.71;67957;1275;1016529;-61
2024/01/14 14:28:12;;;;;;;;;;;;;;;8.44;53.98;97419.52;68007;1275;1016167;-61